Time;durP1;ratioP1;P1;durP2;ratioP2;P2;SDS_P1;SDS_P2;PMS_P1;PMS_P2;Temp;Humidity;BMP_temperature;BMP_pressure;BME280_temperature;BME280_humidity;BME280_pressure;Samples;Min_cycle;Max_cycle;Signal;HPM_P1;HPM_P2
2022/09/03 00:01:40;;;;;;;6.15;1.33;;;18.60;60.80;;;;;;4954233;28;20059;-72
2022/09/03 00:04:20;;;;;;;1.63;1.20;;;18.60;60.60;;;;;;4954211;28;20039;-72
2022/09/03 00:06:57;;;;;;;7.65;1.10;;;18.60;60.40;;;;;;4954169;28;20096;-71
2022/09/03 00:09:41;;;;;;;1.70;0.85;;;18.60;60.60;;;;;;4969077;28;20058;-72
2022/09/03 00:12:30;;;;;;;4.55;1.08;;;18.60;60.60;;;;;;4953727;28;20057;-71
2022/09/03 00:15:11;;;;;;;3.05;0.95;;;18.50;60.90;;;;;;4953828;28;20489;-72
2022/09/03 00:18:03;;;;;;;1.73;0.77;;;18.60;60.80;;;;;;4953617;28;20094;-71
2022/09/03 00:20:42;;;;;;;1.85;0.88;;;18.50;60.80;;;;;;4953752;28;20031;-70
2022/09/03 00:23:15;;;;;;;3.80;1.25;;;18.50;60.60;;;;;;4954010;28;20030;-70
2022/09/03 00:25:55;;;;;;;1.10;0.90;;;18.50;61.30;;;;;;4953693;28;20046;-72
2022/09/03 00:28:32;;;;;;;3.40;1.00;;;18.50;61.10;;;;;;4953648;28;20119;-71
2022/09/03 00:31:17;;;;;;;3.55;1.40;;;18.50;61.30;;;;;;4953677;28;20042;-71
2022/09/03 00:33:50;;;;;;;4.32;1.40;;;18.40;61.30;;;;;;4953633;28;20035;-70
2022/09/03 00:36:23;;;;;;;3.60;0.80;;;18.30;61.10;;;;;;4953438;28;20109;-71
2022/09/03 00:38:50;;;;;;;2.55;0.90;;;18.40;61.40;;;;;;4953725;28;20213;-70
2022/09/03 00:41:58;;;;;;;2.20;1.17;;;18.30;61.60;;;;;;4953862;28;20042;-71
2022/09/03 00:44:33;;;;;;;5.22;1.17;;;18.30;61.80;;;;;;4953400;28;20044;-71
2022/09/03 00:47:37;;;;;;;2.80;1.13;;;18.30;62.30;;;;;;4953203;28;20369;-72
2022/09/03 00:50:08;;;;;;;1.15;0.80;;;18.30;61.80;;;;;;4953722;28;20449;-72
2022/09/03 00:52:59;;;;;;;1.55;1.00;;;18.30;62.20;;;;;;4953431;28;20051;-71
2022/09/03 00:55:46;;;;;;;3.60;1.10;;;18.30;62.10;;;;;;4953101;28;20518;-71
2022/09/03 00:58:39;;;;;;;1.03;0.90;;;18.20;62.00;;;;;;4953261;28;20043;-71
2022/09/03 01:01:15;;;;;;;2.38;1.00;;;18.20;62.00;;;;;;4953178;28;20113;-71
2022/09/03 01:03:58;;;;;;;1.98;0.93;;;18.20;62.20;;;;;;4953282;28;20637;-72
2022/09/03 01:06:38;;;;;;;2.40;0.95;;;18.20;61.90;;;;;;4953082;28;20045;-71
2022/09/03 01:09:47;;;;;;;4.30;1.48;;;18.10;62.40;;;;;;4952948;28;20027;-71
2022/09/03 01:12:18;;;;;;;1.95;1.00;;;18.00;62.50;;;;;;4952744;28;20497;-71
2022/09/03 01:14:59;;;;;;;7.40;1.58;;;18.00;62.60;;;;;;4952876;28;20059;-71
2022/09/03 01:18:07;;;;;;;3.80;1.05;;;17.90;63.10;;;;;;4952997;28;20415;-71
2022/09/03 01:20:48;;;;;;;1.40;0.80;;;17.90;62.90;;;;;;4958902;28;20122;-72
2022/09/03 01:23:29;;;;;;;1.77;0.90;;;17.90;63.10;;;;;;4953386;28;20038;-71
2022/09/03 01:26:26;;;;;;;4.85;1.15;;;17.90;63.70;;;;;;4953109;28;20087;-72
2022/09/03 01:29:07;;;;;;;3.00;1.40;;;17.90;63.50;;;;;;4952954;28;20056;-71
2022/09/03 01:32:14;;;;;;;2.75;0.80;;;17.70;64.00;;;;;;4952879;28;20050;-71
2022/09/03 01:34:57;;;;;;;2.05;1.02;;;17.80;63.80;;;;;;4969601;28;20038;-71
2022/09/03 01:37:32;;;;;;;2.03;1.15;;;17.80;63.70;;;;;;4954890;28;20038;-72
2022/09/03 01:40:17;;;;;;;2.33;0.75;;;17.80;63.90;;;;;;4952920;28;20035;-72
2022/09/03 01:42:58;;;;;;;3.22;1.23;;;17.80;63.90;;;;;;4952953;28;20500;-72
2022/09/03 01:45:47;;;;;;;3.08;0.80;;;17.80;63.70;;;;;;4952718;28;20080;-71
2022/09/03 01:48:20;;;;;;;2.38;0.98;;;17.70;63.80;;;;;;4952681;28;20035;-72
2022/09/03 01:50:45;;;;;;;1.63;1.00;;;17.70;64.50;;;;;;4952912;28;20028;-71
2022/09/03 01:53:14;;;;;;;2.03;1.10;;;17.70;64.40;;;;;;4953200;28;20031;-71
2022/09/03 01:56:06;;;;;;;1.95;0.80;;;17.70;64.60;;;;;;4952435;28;20098;-71
2022/09/03 01:58:41;;;;;;;2.78;0.93;;;17.60;64.60;;;;;;4955330;28;20090;-72
2022/09/03 02:01:21;;;;;;;3.17;0.90;;;17.60;64.70;;;;;;4956328;28;20054;-71
2022/09/03 02:03:47;;;;;;;1.52;1.02;;;17.60;64.10;;;;;;4956357;28;20454;-72
2022/09/03 02:06:14;;;;;;;3.47;0.98;;;17.60;64.70;;;;;;4956263;28;20050;-71
2022/09/03 02:08:40;;;;;;;5.45;1.08;;;17.60;64.50;;;;;;4956041;28;20119;-71
2022/09/03 02:11:08;;;;;;;1.08;0.80;;;17.60;65.20;;;;;;4956350;28;20054;-71
2022/09/03 02:13:39;;;;;;;1.48;0.77;;;17.60;64.40;;;;;;4956519;28;20027;-71
2022/09/03 02:16:19;;;;;;;2.03;0.88;;;17.60;64.20;;;;;;4956460;28;20477;-71
2022/09/03 02:18:53;;;;;;;4.07;1.00;;;17.60;64.50;;;;;;4956009;28;20042;-71
2022/09/03 02:21:21;;;;;;;2.63;0.90;;;17.60;64.60;;;;;;4955981;28;20031;-71
2022/09/03 02:23:48;;;;;;;6.25;0.80;;;17.50;65.00;;;;;;4955973;28;20431;-71
2022/09/03 02:26:19;;;;;;;2.25;0.90;;;17.50;65.00;;;;;;4956453;28;20023;-71
2022/09/03 02:28:44;;;;;;;1.83;0.95;;;17.50;64.80;;;;;;4956021;28;20046;-70
2022/09/03 02:31:10;;;;;;;1.40;0.85;;;17.40;65.40;;;;;;4955813;28;20024;-71
2022/09/03 02:33:38;;;;;;;2.55;0.95;;;17.40;65.50;;;;;;4955947;28;20039;-71
2022/09/03 02:36:11;;;;;;;2.97;0.80;;;17.30;65.10;;;;;;4955876;28;20054;-72
2022/09/03 02:38:37;;;;;;;2.22;0.88;;;17.40;65.40;;;;;;4954894;28;20058;-70
2022/09/03 02:41:06;;;;;;;1.30;0.90;;;17.40;64.90;;;;;;4956231;28;20023;-70
2022/09/03 02:43:53;;;;;;;1.70;0.82;;;17.40;65.70;;;;;;4955704;28;20061;-71
2022/09/03 02:46:23;;;;;;;0.70;0.57;;;17.40;65.70;;;;;;4955732;28;20385;-71
2022/09/03 02:48:48;;;;;;;2.50;1.10;;;17.40;65.80;;;;;;4955711;28;20122;-70
2022/09/03 02:51:14;;;;;;;0.70;0.52;;;17.30;66.10;;;;;;4955575;28;20122;-70
2022/09/03 02:53:40;;;;;;;1.20;0.80;;;17.30;66.00;;;;;;4955520;28;20526;-70
2022/09/03 02:56:06;;;;;;;4.03;0.90;;;17.20;66.20;;;;;;4956145;28;20038;-70
2022/09/03 02:58:32;;;;;;;3.15;0.82;;;17.20;66.50;;;;;;4955436;28;20035;-71
2022/09/03 03:00:58;;;;;;;1.88;0.60;;;17.20;66.60;;;;;;4955325;28;20032;-70
2022/09/03 03:03:24;;;;;;;3.53;0.90;;;17.20;66.60;;;;;;4970212;28;20031;-70
2022/09/03 03:05:54;;;;;;;3.03;1.00;;;17.10;66.60;;;;;;4955122;28;20414;-70
2022/09/03 03:08:22;;;;;;;1.35;0.68;;;17.10;66.70;;;;;;4954667;28;20054;-71
2022/09/03 03:10:48;;;;;;;6.28;0.80;;;17.00;67.30;;;;;;4954673;28;20039;-72
2022/09/03 03:13:15;;;;;;;1.90;0.63;;;17.10;67.00;;;;;;4954007;28;20030;-71
2022/09/03 03:15:41;;;;;;;1.25;0.90;;;17.20;67.00;;;;;;4955103;28;20118;-71
2022/09/03 03:18:10;;;;;;;2.40;0.70;;;17.20;66.70;;;;;;4954930;28;20086;-71
2022/09/03 03:20:37;;;;;;;4.90;0.70;;;17.20;67.20;;;;;;4954935;28;20051;-71
2022/09/03 03:23:04;;;;;;;0.93;0.70;;;17.10;67.30;;;;;;4955233;28;20019;-70
2022/09/03 03:25:39;;;;;;;1.35;0.90;;;17.00;67.40;;;;;;4955099;28;20031;-71
2022/09/03 03:28:06;;;;;;;0.98;0.75;;;17.10;67.50;;;;;;4954765;28;20027;-71
2022/09/03 03:30:32;;;;;;;1.65;1.08;;;17.10;67.40;;;;;;4954959;28;20050;-71
2022/09/03 03:32:58;;;;;;;3.10;0.88;;;17.10;67.30;;;;;;4954807;28;20027;-71
2022/09/03 03:35:24;;;;;;;2.15;0.80;;;17.10;67.60;;;;;;4954706;28;20027;-71
2022/09/03 03:37:50;;;;;;;1.13;0.80;;;17.10;67.80;;;;;;4955099;28;20062;-71
2022/09/03 03:40:16;;;;;;;1.20;0.50;;;17.10;67.90;;;;;;4954567;28;20043;-72
2022/09/03 03:42:42;;;;;;;0.98;0.60;;;17.00;67.70;;;;;;4954675;28;20039;-70
2022/09/03 03:45:09;;;;;;;2.05;0.70;;;17.10;67.50;;;;;;4954684;28;20110;-71
2022/09/03 03:47:35;;;;;;;1.70;0.65;;;17.10;67.50;;;;;;4954654;28;20019;-71
2022/09/03 03:50:01;;;;;;;3.28;0.80;;;17.10;67.50;;;;;;4954939;28;20513;-71
2022/09/03 03:52:27;;;;;;;1.23;0.75;;;17.10;67.80;;;;;;4954657;28;20462;-71
2022/09/03 03:54:53;;;;;;;0.70;0.60;;;17.10;68.00;;;;;;4954483;28;20482;-71
2022/09/03 03:57:20;;;;;;;2.13;0.90;;;17.10;68.10;;;;;;4953080;28;20485;-71
2022/09/03 03:59:46;;;;;;;1.88;0.55;;;17.00;68.20;;;;;;4969190;28;20038;-71
2022/09/03 04:02:13;;;;;;;3.75;0.82;;;16.90;68.60;;;;;;4954716;28;20047;-71
2022/09/03 04:04:38;;;;;;;3.50;1.05;;;17.00;68.40;;;;;;4954058;28;20455;-71
2022/09/03 04:07:04;;;;;;;1.90;0.63;;;17.00;68.60;;;;;;4954217;28;20035;-71
2022/09/03 04:09:30;;;;;;;1.85;0.70;;;17.00;68.30;;;;;;4954087;28;20054;-71
2022/09/03 04:11:56;;;;;;;1.77;1.13;;;17.00;68.30;;;;;;4953989;28;20043;-71
2022/09/03 04:14:23;;;;;;;2.88;0.80;;;17.00;68.90;;;;;;4953778;28;20119;-69
2022/09/03 04:16:49;;;;;;;3.28;0.82;;;17.00;68.50;;;;;;4954270;29;20023;-70
2022/09/03 04:19:16;;;;;;;6.43;0.88;;;17.00;68.40;;;;;;4953828;28;20051;-71
2022/09/03 04:21:42;;;;;;;1.00;0.52;;;16.90;68.60;;;;;;4953589;28;20385;-70
2022/09/03 04:24:08;;;;;;;2.45;0.70;;;17.00;68.70;;;;;;4953608;28;20083;-70
2022/09/03 04:26:34;;;;;;;1.52;0.73;;;16.90;68.50;;;;;;4953701;28;20035;-70
2022/09/03 04:29:03;;;;;;;0.77;0.57;;;16.90;69.10;;;;;;4954038;28;20042;-71
2022/09/03 04:31:30;;;;;;;1.30;0.85;;;17.00;68.80;;;;;;4953980;28;20031;-70
2022/09/03 04:33:56;;;;;;;0.90;0.60;;;16.90;69.20;;;;;;4953737;28;20126;-70
2022/09/03 04:36:24;;;;;;;1.65;0.75;;;16.80;69.50;;;;;;4953391;28;20122;-71
2022/09/03 04:38:53;;;;;;;1.83;1.00;;;16.70;69.70;;;;;;4952313;28;20027;-71
2022/09/03 04:41:23;;;;;;;1.35;0.73;;;16.70;69.50;;;;;;4952216;28;20082;-68
2022/09/03 04:43:54;;;;;;;2.17;0.80;;;16.70;70.00;;;;;;4953883;28;20243;-70
2022/09/03 04:46:21;;;;;;;1.55;0.77;;;16.70;70.10;;;;;;4953477;28;20027;-71
2022/09/03 04:48:52;;;;;;;2.58;0.80;;;16.60;69.90;;;;;;4953321;28;20031;-71
2022/09/03 04:51:23;;;;;;;2.70;1.00;;;16.70;70.00;;;;;;4953339;28;20031;-71
2022/09/03 04:53:55;;;;;;;2.90;0.75;;;16.70;70.00;;;;;;4953189;28;20028;-71
2022/09/03 04:56:23;;;;;;;1.10;0.80;;;16.70;70.30;;;;;;4953064;28;20473;-68
2022/09/03 04:58:57;;;;;;;2.85;1.08;;;16.60;70.30;;;;;;4953933;28;20031;-73
2022/09/03 05:01:26;;;;;;;1.95;1.00;;;16.50;70.70;;;;;;4953096;28;20122;-71
2022/09/03 05:03:52;;;;;;;7.13;0.93;;;16.50;70.30;;;;;;4953181;28;20035;-72
2022/09/03 05:06:18;;;;;;;3.92;0.90;;;16.60;70.90;;;;;;4952100;28;20402;-70
2022/09/03 05:08:51;;;;;;;2.92;1.10;;;16.60;70.50;;;;;;4953255;28;20162;-72
2022/09/03 05:11:18;;;;;;;2.60;0.95;;;16.60;70.60;;;;;;4953604;28;20351;-71
2022/09/03 05:13:47;;;;;;;2.78;0.55;;;16.50;70.70;;;;;;4952271;29;20482;-71
2022/09/03 05:16:14;;;;;;;2.40;0.70;;;16.40;71.10;;;;;;4953120;28;20436;-71
2022/09/03 05:18:41;;;;;;;3.55;0.93;;;16.40;71.10;;;;;;4952847;28;20426;-71
2022/09/03 05:21:09;;;;;;;1.38;0.70;;;16.50;71.10;;;;;;4952819;28;20118;-71
2022/09/03 05:23:36;;;;;;;;;;;16.50;70.90;;;;;;4953517;28;20058;-71
2022/09/03 05:26:07;;;;;;;9.82;0.68;;;16.60;71.00;;;;;;4953325;29;19917;-71
2022/09/03 05:28:35;;;;;;;3.40;1.20;;;16.60;71.20;;;;;;4951868;28;20040;-72
2022/09/03 05:31:06;;;;;;;1.50;0.73;;;16.60;71.00;;;;;;4952913;28;20031;-72
2022/09/03 05:33:36;;;;;;;2.10;0.65;;;16.60;71.40;;;;;;4958614;28;20058;-72
2022/09/03 05:36:08;;;;;;;1.02;0.75;;;16.60;71.20;;;;;;4959128;28;20035;-71
2022/09/03 05:38:34;;;;;;;3.58;1.25;;;16.60;71.20;;;;;;4959209;28;20031;-71
2022/09/03 05:41:20;;;;;;;3.30;1.00;;;16.60;71.20;;;;;;4959407;28;20458;-69
2022/09/03 05:43:54;;;;;;;1.45;0.70;;;16.60;71.30;;;;;;4959244;28;20051;-71
2022/09/03 05:46:25;;;;;;;9.80;0.90;;;16.60;71.40;;;;;;4959153;28;20059;-71
2022/09/03 05:48:51;;;;;;;1.35;0.70;;;16.60;71.30;;;;;;4958979;28;20031;-70
2022/09/03 05:51:17;;;;;;;1.20;0.63;;;16.60;71.60;;;;;;4957901;28;20039;-71
2022/09/03 05:53:45;;;;;;;1.92;1.13;;;16.70;71.60;;;;;;4958760;28;20059;-70
2022/09/03 05:56:16;;;;;;;1.70;0.82;;;16.60;71.50;;;;;;4959368;28;20361;-70
2022/09/03 05:58:44;;;;;;;3.20;0.98;;;16.60;71.90;;;;;;4959226;28;20130;-69
2022/09/03 06:01:21;;;;;;;1.10;0.60;;;16.70;71.70;;;;;;4959303;28;20107;-70
2022/09/03 06:03:57;;;;;;;1.30;0.70;;;16.60;72.10;;;;;;4959228;28;20118;-70
2022/09/03 06:06:30;;;;;;;3.88;1.20;;;16.60;72.30;;;;;;4958864;28;20039;-72
2022/09/03 06:08:58;;;;;;;2.35;1.05;;;16.60;72.30;;;;;;4959001;28;20090;-70
2022/09/03 06:11:26;;;;;;;1.08;0.85;;;16.50;72.60;;;;;;4958544;28;20393;-70
2022/09/03 06:13:53;;;;;;;;;;;16.60;72.40;;;;;;4959608;28;20082;-71
2022/09/03 06:16:20;;;;;;;1.63;0.90;;;16.70;72.40;;;;;;4958834;28;20309;-70
2022/09/03 06:18:46;;;;;;;3.03;1.08;;;16.70;72.60;;;;;;4958643;28;20130;-71
2022/09/03 06:21:13;;;;;;;2.03;0.80;;;16.70;72.80;;;;;;4958805;28;20043;-71
2022/09/03 06:23:40;;;;;;;1.55;0.90;;;16.70;72.70;;;;;;4958762;28;20054;-71
2022/09/03 06:26:10;;;;;;;2.50;1.85;;;16.70;72.40;;;;;;4959053;28;20015;-70
2022/09/03 06:28:37;;;;;;;1.65;0.90;;;16.70;72.60;;;;;;4958641;28;20027;-71
2022/09/03 06:31:09;;;;;;;4.47;0.80;;;16.80;72.80;;;;;;4958522;28;20023;-71
2022/09/03 06:33:36;;;;;;;5.00;0.85;;;16.80;73.20;;;;;;4958448;28;20118;-71
2022/09/03 06:36:06;;;;;;;1.20;0.77;;;16.80;72.90;;;;;;4958266;28;20142;-72
2022/09/03 06:38:34;;;;;;;3.38;1.00;;;16.90;72.60;;;;;;4958451;28;20031;-71
2022/09/03 06:41:01;;;;;;;;;;;16.90;73.10;;;;;;4959529;28;20401;-72
2022/09/03 06:43:28;;;;;;;2.80;1.10;;;17.00;73.60;;;;;;4957816;28;19953;-70
2022/09/03 06:45:59;;;;;;;1.67;0.60;;;17.00;73.40;;;;;;4955493;28;20411;-69
2022/09/03 06:48:26;;;;;;;2.70;1.00;;;17.00;73.70;;;;;;4955744;28;20035;-69
2022/09/03 06:50:56;;;;;;;4.03;1.15;;;17.00;73.00;;;;;;4955478;28;20126;-69
2022/09/03 06:53:23;;;;;;;1.30;0.82;;;17.10;73.40;;;;;;4970437;28;20075;-71
2022/09/03 06:55:57;;;;;;;2.53;1.30;;;17.10;73.20;;;;;;4955687;29;20099;-70
2022/09/03 06:58:27;;;;;;;1.10;0.70;;;17.20;73.40;;;;;;4954545;28;20035;-71
2022/09/03 07:00:53;;;;;;;4.65;1.50;;;17.10;73.50;;;;;;4955394;28;20032;-70
2022/09/03 07:03:19;;;;;;;5.88;0.90;;;17.10;73.10;;;;;;4955372;28;20680;-70
2022/09/03 07:05:46;;;;;;;17.80;2.40;;;17.20;73.10;;;;;;4955191;28;20393;-70
2022/09/03 07:08:11;;;;;;;3.83;1.10;;;17.20;73.80;;;;;;4954739;28;20401;-70
2022/09/03 07:10:37;;;;;;;10.32;1.95;;;17.30;73.80;;;;;;4954932;28;20118;-71
2022/09/03 07:13:05;;;;;;;3.33;1.10;;;17.30;74.10;;;;;;4955200;28;20028;-71
2022/09/03 07:15:32;;;;;;;1.88;1.05;;;17.30;73.80;;;;;;4954956;28;20370;-74
2022/09/03 07:17:58;;;;;;;6.47;0.90;;;17.40;73.60;;;;;;4954801;28;20050;-71
2022/09/03 07:20:24;;;;;;;7.47;1.30;;;17.40;73.30;;;;;;4954767;28;20441;-71
2022/09/03 07:22:49;;;;;;;3.53;1.20;;;17.50;73.70;;;;;;4955408;28;20031;-72
2022/09/03 07:25:15;;;;;;;5.60;1.27;;;17.40;74.00;;;;;;4953845;28;20032;-73
2022/09/03 07:27:41;;;;;;;1.35;0.95;;;17.50;74.30;;;;;;4953922;28;20186;-72
2022/09/03 07:30:09;;;;;;;6.00;1.25;;;17.50;73.90;;;;;;4969875;28;20061;-73
2022/09/03 07:32:39;;;;;;;7.60;1.13;;;17.60;73.90;;;;;;4954703;28;20023;-73
2022/09/03 07:35:05;;;;;;;1.33;0.70;;;17.70;74.00;;;;;;4953886;29;20023;-73
2022/09/03 07:37:32;;;;;;;6.10;0.90;;;17.70;73.60;;;;;;4953356;28;20075;-74
2022/09/03 07:39:58;;;;;;;2.03;1.13;;;17.80;73.70;;;;;;4954433;28;20458;-73
2022/09/03 07:42:26;;;;;;;3.97;0.98;;;17.90;73.40;;;;;;4954376;28;20373;-72
2022/09/03 07:44:51;;;;;;;4.93;1.10;;;17.90;73.30;;;;;;4954577;28;20043;-71
2022/09/03 07:47:18;;;;;;;0.77;0.60;;;18.00;73.70;;;;;;4955000;28;20098;-72
2022/09/03 07:49:44;;;;;;;3.42;1.10;;;18.10;73.20;;;;;;4950497;29;20039;-72
2022/09/03 07:52:10;;;;;;;9.50;1.85;;;18.20;73.20;;;;;;4935514;28;20043;-72
2022/09/03 07:54:35;;;;;;;3.28;1.30;;;18.30;72.60;;;;;;4933889;29;20064;-71
2022/09/03 07:57:01;;;;;;;5.63;1.23;;;18.30;72.80;;;;;;4935281;28;20042;-73
2022/09/03 07:59:27;;;;;;;4.88;0.90;;;18.40;72.80;;;;;;4935141;28;20324;-72
2022/09/03 08:01:53;;;;;;;7.93;1.23;;;18.50;73.00;;;;;;4934469;29;20023;-73
2022/09/03 08:04:20;;;;;;;3.38;0.95;;;18.60;73.10;;;;;;4935155;28;20039;-73
2022/09/03 08:06:47;;;;;;;3.08;1.05;;;18.70;72.30;;;;;;4934988;28;20032;-72
2022/09/03 08:09:12;;;;;;;1.80;1.17;;;18.80;72.30;;;;;;4934958;28;20040;-74
2022/09/03 08:11:40;;;;;;;5.00;1.60;;;18.90;72.00;;;;;;4935112;28;20048;-73
2022/09/03 08:14:08;;;;;;;2.10;0.80;;;19.10;72.00;;;;;;4935327;29;20051;-72
2022/09/03 08:16:36;;;;;;;4.18;1.20;;;19.40;71.50;;;;;;4935006;28;20421;-73
2022/09/03 08:19:03;;;;;;;5.30;1.00;;;19.60;70.30;;;;;;4933581;29;20046;-73
2022/09/03 08:21:29;;;;;;;1.70;0.90;;;20.00;70.50;;;;;;4934797;28;20043;-73
2022/09/03 08:24:01;;;;;;;3.40;1.10;;;20.30;69.80;;;;;;4934749;28;20032;-73
2022/09/03 08:26:32;;;;;;;0.90;0.65;;;20.50;68.70;;;;;;4934744;28;20047;-72
2022/09/03 08:28:59;;;;;;;1.90;0.98;;;20.80;68.20;;;;;;4934359;29;20019;-72
2022/09/03 08:31:26;;;;;;;2.63;1.00;;;21.10;68.00;;;;;;4934799;28;20024;-72
2022/09/03 08:33:53;;;;;;;4.20;0.88;;;21.40;66.50;;;;;;4935586;29;20035;-72
2022/09/03 08:36:24;;;;;;;4.85;0.90;;;21.70;65.40;;;;;;4934478;28;20044;-73
2022/09/03 08:38:53;;;;;;;1.83;0.73;;;21.70;64.60;;;;;;4934394;28;20031;-72
2022/09/03 08:41:44;;;;;;;4.95;1.50;;;21.80;64.00;;;;;;4934121;28;20038;-70
2022/09/03 08:44:27;;;;;;;1.95;1.10;;;21.70;64.70;;;;;;4934745;29;20099;-71
2022/09/03 08:47:05;;;;;;;5.00;1.77;;;21.70;63.50;;;;;;4953447;29;20035;-71
2022/09/03 08:50:01;;;;;;;9.38;1.30;;;21.50;63.70;;;;;;4953377;28;20038;-72
2022/09/03 08:52:50;;;;;;;1.88;0.95;;;21.60;63.50;;;;;;4953433;28;20461;-72
2022/09/03 08:55:25;;;;;;;6.38;1.73;;;21.50;63.00;;;;;;4953072;28;20027;-71
2022/09/03 08:57:55;;;;;;;5.00;1.25;;;21.50;62.00;;;;;;4953053;28;20038;-72
2022/09/03 09:00:21;;;;;;;5.18;1.38;;;21.60;62.70;;;;;;4953187;28;20481;-71
2022/09/03 09:03:19;;;;;;;6.03;1.35;;;21.70;61.90;;;;;;4953255;28;20031;-72
2022/09/03 09:05:59;;;;;;;;;;;22.10;61.80;;;;;;4953451;28;20035;-73
2022/09/03 09:08:46;;;;;;;4.20;1.10;;;22.50;60.50;;;;;;4952387;28;19989;-73
2022/09/03 09:11:21;;;;;;;3.42;1.08;;;22.80;60.10;;;;;;4953410;28;20157;-72
2022/09/03 09:13:59;;;;;;;7.38;1.15;;;22.90;59.40;;;;;;4953407;28;20055;-72
2022/09/03 09:16:48;;;;;;;3.50;0.90;;;22.90;58.90;;;;;;4952882;28;20031;-71
2022/09/03 09:19:29;;;;;;;5.35;1.00;;;23.00;58.50;;;;;;4954532;28;20031;-72
2022/09/03 09:22:00;;;;;;;3.55;0.90;;;23.00;58.10;;;;;;4967829;28;20035;-72
2022/09/03 09:24:32;;;;;;;5.70;1.10;;;22.90;57.30;;;;;;4952922;28;20051;-72
2022/09/03 09:27:01;;;;;;;6.38;1.20;;;23.10;57.80;;;;;;4953190;28;20110;-72
2022/09/03 09:29:31;;;;;;;9.48;1.25;;;23.10;57.30;;;;;;4953015;28;20442;-72
2022/09/03 09:31:57;;;;;;;4.95;0.88;;;23.40;57.30;;;;;;4968265;28;20055;-73
2022/09/03 09:34:23;;;;;;;2.72;1.02;;;23.40;55.90;;;;;;4952534;28;20040;-72
2022/09/03 09:36:54;;;;;;;5.07;1.30;;;23.60;55.50;;;;;;4952759;28;20496;-72
2022/09/03 09:39:21;;;;;;;2.65;1.45;;;23.80;55.20;;;;;;4967729;28;20172;-74
2022/09/03 09:41:57;;;;;;;4.82;1.05;;;23.60;54.40;;;;;;4952873;28;20038;-71
2022/09/03 09:44:25;;;;;;;1.58;0.88;;;24.00;55.00;;;;;;4952743;28;20098;-72
2022/09/03 09:47:05;;;;;;;11.70;2.00;;;24.40;54.60;;;;;;4953271;28;20031;-72
2022/09/03 09:49:35;;;;;;;4.60;1.00;;;24.70;53.00;;;;;;4952498;28;20098;-73
2022/09/03 09:52:08;;;;;;;2.80;0.93;;;24.80;53.20;;;;;;4952766;28;20183;-73
2022/09/03 09:54:34;;;;;;;2.85;0.98;;;24.70;53.30;;;;;;4952589;28;20039;-74
2022/09/03 09:57:05;;;;;;;2.58;0.70;;;24.90;52.70;;;;;;4952562;28;20031;-72
2022/09/03 09:59:32;;;;;;;2.30;0.90;;;25.70;51.20;;;;;;4952759;28;20106;-74
2022/09/03 10:02:27;;;;;;;2.73;0.90;;;27.00;50.80;;;;;;4953067;28;20446;-73
2022/09/03 10:05:10;;;;;;;4.05;1.10;;;27.90;48.30;;;;;;4953826;28;20567;-74
2022/09/03 10:07:36;;;;;;;2.45;1.00;;;28.40;47.00;;;;;;4967545;28;20042;-73
2022/09/03 10:10:18;;;;;;;3.97;1.00;;;28.80;45.00;;;;;;4952624;28;20035;-73
2022/09/03 10:13:08;;;;;;;5.97;1.33;;;30.10;45.30;;;;;;4967557;28;20138;-73
2022/09/03 10:15:46;;;;;;;1.40;0.80;;;30.40;45.10;;;;;;4952563;28;20477;-73
2022/09/03 10:18:44;;;;;;;3.97;1.02;;;31.50;43.80;;;;;;4952910;28;20494;-73
2022/09/03 10:21:16;;;;;;;2.80;1.05;;;32.60;42.10;;;;;;4956955;28;20039;-73
2022/09/03 10:24:00;;;;;;;5.00;1.00;;;32.90;39.00;;;;;;4955770;28;20039;-74
2022/09/03 10:26:29;;;;;;;5.43;1.40;;;32.30;37.80;;;;;;4970876;28;20047;-73
2022/09/03 10:29:04;;;;;;;8.13;0.80;;;32.90;38.70;;;;;;4956480;28;20038;-73
2022/09/03 10:31:55;;;;;;;12.05;3.72;;;32.90;38.00;;;;;;4955881;28;20126;-74
2022/09/03 10:34:22;;;;;;;5.13;0.90;;;32.80;37.80;;;;;;4955679;28;20430;-74
2022/09/03 10:36:59;;;;;;;5.10;1.10;;;33.20;36.60;;;;;;4955525;28;20473;-75
2022/09/03 10:39:34;;;;;;;4.53;1.10;;;33.60;36.80;;;;;;4955527;28;20375;-74
2022/09/03 10:42:26;;;;;;;4.68;1.27;;;33.90;35.10;;;;;;4955245;28;20050;-72
2022/09/03 10:45:08;;;;;;;3.60;1.33;;;33.30;35.80;;;;;;4955751;28;20027;-75
2022/09/03 10:47:52;;;;;;;3.13;1.00;;;33.20;35.90;;;;;;4955690;28;20090;-74
2022/09/03 10:50:52;;;;;;;5.82;1.42;;;32.90;36.20;;;;;;4955808;28;20590;-74
2022/09/03 10:53:28;;;;;;;4.82;1.27;;;33.70;35.40;;;;;;4955277;28;20035;-75
2022/09/03 10:56:16;;;;;;;3.53;1.05;;;33.70;35.00;;;;;;4955540;28;20034;-74
2022/09/03 10:58:47;;;;;;;4.15;0.82;;;33.90;34.60;;;;;;4970434;28;20031;-74
2022/09/03 11:01:26;;;;;;;2.53;0.88;;;33.80;35.40;;;;;;4955284;28;20431;-74
2022/09/03 11:03:58;;;;;;;4.78;1.17;;;34.10;34.40;;;;;;4955349;28;20254;-73
2022/09/03 11:06:27;;;;;;;12.32;1.20;;;33.30;34.50;;;;;;4970140;28;20035;-74
2022/09/03 11:08:59;;;;;;;3.08;1.10;;;32.90;34.50;;;;;;4955005;28;20123;-73
2022/09/03 11:11:37;;;;;;;8.40;1.02;;;32.60;35.20;;;;;;4954898;28;20047;-74
2022/09/03 11:14:11;;;;;;;3.00;1.10;;;32.20;35.10;;;;;;4955794;28;20035;-74
2022/09/03 11:16:42;;;;;;;2.05;0.93;;;32.00;35.90;;;;;;4955292;28;20035;-73
2022/09/03 11:19:15;;;;;;;2.08;0.77;;;32.30;36.30;;;;;;4955358;28;20103;-74
2022/09/03 11:21:42;;;;;;;1.63;0.80;;;31.70;36.20;;;;;;4955229;28;20122;-73
2022/09/03 11:24:27;;;;;;;7.57;1.30;;;30.90;36.70;;;;;;4969956;28;20031;-73
2022/09/03 11:27:19;;;;;;;2.65;1.20;;;29.80;37.90;;;;;;4954572;28;20031;-72
2022/09/03 11:30:02;;;;;;;3.58;0.80;;;29.80;38.20;;;;;;4953767;28;20089;-74
2022/09/03 11:32:54;;;;;;;9.38;1.52;;;29.50;38.40;;;;;;4955185;28;20166;-74
2022/09/03 11:35:32;;;;;;;3.22;1.00;;;29.20;38.10;;;;;;4954967;28;20415;-73
2022/09/03 11:37:59;;;;;;;5.22;1.40;;;28.90;39.00;;;;;;4955303;28;20011;-73
2022/09/03 11:40:32;;;;;;;6.20;0.90;;;28.60;39.30;;;;;;4954612;28;20034;-73
2022/09/03 11:43:23;;;;;;;1.85;1.10;;;28.70;39.20;;;;;;4969547;28;20277;-73
2022/09/03 11:46:12;;;;;;;5.80;0.80;;;28.60;39.40;;;;;;4969505;28;20035;-73
2022/09/03 11:48:49;;;;;;;4.82;1.00;;;28.30;39.90;;;;;;4954463;28;20027;-73
2022/09/03 11:51:29;;;;;;;2.13;0.90;;;28.10;40.30;;;;;;4954698;28;20354;-74
2022/09/03 11:54:14;;;;;;;6.30;1.00;;;28.00;40.30;;;;;;4954146;28;20047;-74
2022/09/03 11:56:41;;;;;;;3.92;1.00;;;27.90;40.60;;;;;;4954739;28;20411;-75
2022/09/03 11:59:13;;;;;;;5.80;0.90;;;27.80;40.60;;;;;;4954964;28;20031;-73
2022/09/03 12:01:43;;;;;;;5.35;1.00;;;27.50;40.70;;;;;;4954766;28;20079;-73
2022/09/03 12:04:14;;;;;;;1.75;1.00;;;27.40;41.10;;;;;;4954542;28;20465;-75
2022/09/03 12:06:45;;;;;;;4.38;0.95;;;27.10;41.20;;;;;;4969428;28;20098;-73
2022/09/03 12:09:30;;;;;;;2.97;1.33;;;27.10;41.50;;;;;;4954388;28;20110;-74
2022/09/03 12:12:32;;;;;;;9.27;1.02;;;27.10;41.40;;;;;;4953787;28;20046;-73
2022/09/03 12:15:10;;;;;;;3.05;1.20;;;26.80;41.80;;;;;;4954104;28;20058;-71
2022/09/03 12:18:18;;;;;;;2.17;0.75;;;26.70;41.90;;;;;;4954043;28;20034;-73
2022/09/03 12:20:49;;;;;;;3.60;0.90;;;26.60;42.40;;;;;;4954046;28;20462;-75
2022/09/03 12:23:41;;;;;;;1.42;0.90;;;26.70;42.40;;;;;;4969695;28;20031;-74
2022/09/03 12:26:15;;;;;;;1.45;1.08;;;26.60;42.50;;;;;;4967786;28;20039;-74
2022/09/03 12:28:50;;;;;;;2.95;0.80;;;26.60;42.70;;;;;;4968860;28;20118;-75
2022/09/03 12:31:21;;;;;;;1.63;0.80;;;26.70;42.70;;;;;;4953730;28;20032;-74
2022/09/03 12:34:08;;;;;;;1.25;0.75;;;26.60;42.50;;;;;;4953462;28;20315;-73
2022/09/03 12:36:40;;;;;;;1.95;0.90;;;26.50;42.10;;;;;;4953655;28;20039;-74
2022/09/03 12:39:10;;;;;;;4.63;0.98;;;26.50;43.20;;;;;;4968611;28;20114;-74
2022/09/03 12:41:37;;;;;;;14.77;1.20;;;26.60;42.70;;;;;;4968358;28;20436;-75
2022/09/03 12:44:03;;;;;;;2.22;0.80;;;26.40;42.20;;;;;;4954488;28;20037;-72
2022/09/03 12:46:32;;;;;;;14.48;1.45;;;26.30;42.50;;;;;;4953361;28;20027;-75
2022/09/03 12:49:04;;;;;;;3.70;1.27;;;26.30;42.80;;;;;;4953584;28;20031;-72
2022/09/03 12:51:43;;;;;;;1.73;0.80;;;26.20;42.60;;;;;;4953571;28;20102;-72
2022/09/03 12:54:15;;;;;;;4.85;2.25;;;26.30;42.80;;;;;;4953422;28;20031;-73
2022/09/03 12:56:55;;;;;;;5.25;1.42;;;26.30;42.50;;;;;;4953293;28;20027;-72
2022/09/03 12:59:23;;;;;;;1.35;0.95;;;26.20;42.90;;;;;;4968588;28;20410;-73
2022/09/03 13:01:56;;;;;;;4.72;1.10;;;26.20;43.30;;;;;;4953900;28;20052;-73
2022/09/03 13:04:29;;;;;;;2.20;0.93;;;26.30;43.10;;;;;;4953509;28;20378;-73
2022/09/03 13:07:02;;;;;;;1.35;1.00;;;26.30;43.00;;;;;;4953426;28;20024;-74
2022/09/03 13:09:30;;;;;;;2.80;1.08;;;26.30;43.00;;;;;;4952558;28;20031;-74
2022/09/03 13:11:58;;;;;;;2.13;0.98;;;26.30;42.90;;;;;;4953128;28;20462;-74
2022/09/03 13:14:26;;;;;;;3.10;0.70;;;26.30;43.10;;;;;;4953278;28;20087;-72
2022/09/03 13:17:21;;;;;;;2.38;0.88;;;26.30;42.70;;;;;;4969099;28;20027;-74
2022/09/03 13:20:09;;;;;;;3.28;0.93;;;26.30;43.10;;;;;;4953254;29;20058;-73